Terminal Aerodrome Forecast
Issued by NWS Bismarck, ND

Home | Current Version | Previous Version | Graphics & Text | Print | Product List | Glossary On
Versions: 1 2 3 4 5 6 7 8 9 10 11 12 13
000
FTUS43 KBIS 221100
TAFISN
TAF
KISN 221123Z 2212/2312 21007KT P6SM BKN100 OVC250
     FM221500 22014KT P6SM SCT050 BKN100
     FM230000 26010KT P6SM SCT050 BKN100
     FM230600 27008KT P6SM SCT100=

USA.gov is the U.S. government's official web portal to all federal, state and local government web resources and services.